createdAt,value
2019-05-23T00:01:18.444Z,9.20
2019-05-23T00:04:04.022Z,7.03
2019-05-23T00:06:37.907Z,5.53
2019-05-23T00:09:06.060Z,6.53
2019-05-23T00:11:47.778Z,6.13
2019-05-23T00:14:37.411Z,7.27
2019-05-23T00:17:04.875Z,6.10
2019-05-23T00:19:31.930Z,5.73
2019-05-23T00:21:59.205Z,6.00
2019-05-23T00:24:27.765Z,6.03
2019-05-23T00:26:56.243Z,7.10
2019-05-23T00:29:25.043Z,6.77
2019-05-23T00:31:53.109Z,7.30
2019-05-23T00:34:20.998Z,6.80
2019-05-23T00:36:49.889Z,7.53
2019-05-23T00:39:16.244Z,7.87
2019-05-23T00:41:44.217Z,8.03
2019-05-23T00:44:11.370Z,7.30
2019-05-23T00:46:38.827Z,6.60
2019-05-23T00:49:06.774Z,6.53
2019-05-23T00:51:34.830Z,7.93
2019-05-23T00:54:03.125Z,7.57
2019-05-23T00:56:29.959Z,6.10
2019-05-23T00:58:56.908Z,7.57
2019-05-23T01:01:24.521Z,6.10
2019-05-23T01:03:51.555Z,8.70
2019-05-23T01:06:18.938Z,7.10
2019-05-23T01:08:45.806Z,6.73
2019-05-23T01:11:12.647Z,7.03
2019-05-23T01:13:39.453Z,7.47
2019-05-23T01:16:06.250Z,7.40
2019-05-23T01:18:33.240Z,6.23
2019-05-23T01:21:01.474Z,7.70
2019-05-23T01:23:29.991Z,6.67
2019-05-23T01:25:56.616Z,7.20
2019-05-23T01:28:22.989Z,8.13
2019-05-23T01:30:51.631Z,8.03
2019-05-23T01:33:18.543Z,7.47
2019-05-23T01:35:47.553Z,7.77
2019-05-23T01:38:14.153Z,6.80
2019-05-23T01:40:40.936Z,6.93
2019-05-23T01:43:07.655Z,7.93
2019-05-23T01:45:34.680Z,8.77
2019-05-23T01:48:01.401Z,6.60
2019-05-23T01:50:28.942Z,7.87
2019-05-23T01:52:55.500Z,8.37
2019-05-23T01:55:22.147Z,8.13
2019-05-23T01:57:48.807Z,9.53
2019-05-23T02:00:17.671Z,8.83
2019-05-23T02:02:44.014Z,6.90
2019-05-23T02:05:11.600Z,8.20
2019-05-23T02:07:38.331Z,9.33
2019-05-23T02:10:08.088Z,6.77
2019-05-23T02:12:34.744Z,7.10
2019-05-23T02:15:02.115Z,8.07
2019-05-23T02:17:29.045Z,6.77
2019-05-23T02:19:56.325Z,7.30
2019-05-23T02:22:22.657Z,8.63
2019-05-23T02:24:49.225Z,6.73
2019-05-23T02:27:16.891Z,8.97
2019-05-23T02:29:44.537Z,7.07
2019-05-23T02:32:12.724Z,6.60
2019-05-23T02:34:40.790Z,8.27
2019-05-23T02:37:16.357Z,8.20
2019-05-23T02:39:44.525Z,8.90
2019-05-23T02:42:28.100Z,7.70
2019-05-23T02:44:55.189Z,7.03
2019-05-23T02:47:32.845Z,8.07
2019-05-23T02:49:59.453Z,7.03
2019-05-23T02:52:41.718Z,6.73
2019-05-23T02:55:24.044Z,7.13
2019-05-23T02:57:51.576Z,7.90
2019-05-23T03:00:52.654Z,7.87
2019-05-23T03:03:08.700Z,7.57
2019-05-23T03:05:36.760Z,7.30
2019-05-23T03:08:05.225Z,7.10
2019-05-23T03:10:50.630Z,9.20
2019-05-23T03:13:20.544Z,7.10
2019-05-23T03:15:49.063Z,7.40
2019-05-23T03:18:15.537Z,8.60
2019-05-23T03:20:42.307Z,7.87
2019-05-23T03:23:12.060Z,8.00
2019-05-23T03:25:42.538Z,8.47
2019-05-23T03:28:11.971Z,8.73
2019-05-23T03:30:46.883Z,8.83
2019-05-23T03:33:14.337Z,9.03
2019-05-23T03:35:59.054Z,8.37
2019-05-23T03:38:27.387Z,8.20
2019-05-23T03:40:54.841Z,7.03
2019-05-23T03:43:21.069Z,7.43
2019-05-23T03:45:49.734Z,8.00
2019-05-23T03:48:18.280Z,8.17
2019-05-23T03:50:46.319Z,8.40
2019-05-23T03:53:12.891Z,8.50
2019-05-23T03:55:41.808Z,8.57
2019-05-23T03:58:10.235Z,9.33
2019-05-23T04:00:38.655Z,7.73
2019-05-23T04:03:07.135Z,7.73
2019-05-23T04:05:34.396Z,9.80
2019-05-23T04:08:03.575Z,8.40
2019-05-23T04:10:29.893Z,7.43
2019-05-23T04:12:56.034Z,9.13
2019-05-23T04:15:24.193Z,8.27
2019-05-23T04:17:51.087Z,8.17
2019-05-23T04:20:17.544Z,9.43
2019-05-23T04:22:43.894Z,8.10
2019-05-23T04:25:11.047Z,8.07
2019-05-23T04:27:38.047Z,7.60
2019-05-23T04:30:09.158Z,8.43
2019-05-23T04:32:35.719Z,8.60
2019-05-23T04:35:04.290Z,9.50
2019-05-23T04:37:30.725Z,8.10
2019-05-23T04:39:57.360Z,8.37
2019-05-23T04:42:23.707Z,9.80
2019-05-23T04:44:50.177Z,9.83
2019-05-23T04:47:16.704Z,7.83
2019-05-23T04:49:43.430Z,10.47
2019-05-23T04:52:10.400Z,11.37
2019-05-23T04:54:37.174Z,8.60
2019-05-23T04:57:03.732Z,10.00
2019-05-23T04:59:30.325Z,9.30
2019-05-23T05:01:57.164Z,8.23
2019-05-23T05:04:24.596Z,8.40
2019-05-23T05:06:51.720Z,9.87
2019-05-23T05:09:25.172Z,9.97
2019-05-23T05:11:52.665Z,10.17
2019-05-23T05:14:19.338Z,10.70
2019-05-23T05:16:45.875Z,10.63
2019-05-23T05:19:12.032Z,11.87
2019-05-23T05:21:39.126Z,10.83
2019-05-23T05:24:05.348Z,12.40
2019-05-23T05:26:31.589Z,9.90
2019-05-23T05:28:58.518Z,9.10
2019-05-23T05:31:24.828Z,10.23
2019-05-23T05:33:51.600Z,8.93
2019-05-23T05:36:17.981Z,8.73
2019-05-23T05:38:44.320Z,7.30
2019-05-23T05:41:10.681Z,7.23
2019-05-23T05:43:38.790Z,7.40
2019-05-23T05:46:04.973Z,6.73
2019-05-23T05:48:31.954Z,6.60
2019-05-23T05:50:58.523Z,8.33
2019-05-23T05:53:25.151Z,6.87
2019-05-23T05:55:51.433Z,5.87
2019-05-23T05:58:38.181Z,6.47
2019-05-23T06:01:06.773Z,5.70
2019-05-23T06:03:33.335Z,8.13
2019-05-23T06:06:07.600Z,6.15
2019-05-23T06:08:35.735Z,7.15
2019-05-23T06:11:02.732Z,7.60
2019-05-23T06:13:29.140Z,7.90
2019-05-23T06:15:55.652Z,7.85
2019-05-23T06:18:22.425Z,6.85
2019-05-23T06:20:49.249Z,7.28
2019-05-23T06:23:17.013Z,6.35
2019-05-23T06:25:43.765Z,5.65
2019-05-23T06:28:11.015Z,6.47
2019-05-23T06:30:38.765Z,7.67
2019-05-23T06:33:21.891Z,9.43
2019-05-23T06:35:35.058Z,6.75
2019-05-23T06:38:02.178Z,6.72
2019-05-23T06:40:29.431Z,6.25
2019-05-23T06:42:55.934Z,5.03
2019-05-23T06:45:22.705Z,6.08
2019-05-23T06:47:49.203Z,5.80
2019-05-23T06:50:17.042Z,4.90
2019-05-23T06:52:43.689Z,6.20
2019-05-23T06:55:10.430Z,5.78
2019-05-23T06:57:36.937Z,5.30
2019-05-23T07:00:06.824Z,7.12
2019-05-23T07:02:33.813Z,6.47
2019-05-23T07:05:00.183Z,5.40
2019-05-23T07:07:27.290Z,4.70
2019-05-23T07:09:54.136Z,4.75
2019-05-23T07:12:20.658Z,4.80
2019-05-23T07:14:46.904Z,5.00
2019-05-23T07:17:14.949Z,5.50
2019-05-23T07:19:41.146Z,5.08
2019-05-23T07:22:08.714Z,4.87
2019-05-23T07:24:35.452Z,5.22
2019-05-23T07:27:01.902Z,5.60
2019-05-23T07:29:28.276Z,4.50
2019-05-23T07:31:54.615Z,5.15
2019-05-23T07:34:21.323Z,4.92
2019-05-23T07:36:48.039Z,5.33
2019-05-23T07:39:15.591Z,5.47
2019-05-23T07:41:41.924Z,5.47
2019-05-23T07:44:09.246Z,4.28
2019-05-23T07:46:35.567Z,4.17
2019-05-23T07:49:02.751Z,4.28
2019-05-23T07:51:29.918Z,3.80
2019-05-23T07:54:07.151Z,4.20
2019-05-23T07:56:35.785Z,4.75
2019-05-23T07:59:02.959Z,5.03
2019-05-23T08:01:33.723Z,4.97
2019-05-23T08:04:17.877Z,5.67
2019-05-23T08:06:29.145Z,6.65
2019-05-23T08:08:56.236Z,4.20
2019-05-23T08:11:22.868Z,4.95
2019-05-23T08:13:49.274Z,4.62
2019-05-23T08:16:16.158Z,4.58
2019-05-23T08:18:42.287Z,3.72
2019-05-23T08:21:08.731Z,4.30
2019-05-23T08:23:35.241Z,3.92
2019-05-23T08:26:01.777Z,3.27
2019-05-23T08:28:28.091Z,4.60
2019-05-23T08:30:54.379Z,4.08
2019-05-23T08:33:22.340Z,3.87
2019-05-23T08:35:49.118Z,3.50
2019-05-23T08:38:15.555Z,2.75
2019-05-23T08:40:42.909Z,3.20
2019-05-23T08:43:09.429Z,6.65
2019-05-23T08:45:35.693Z,3.10
2019-05-23T08:48:02.895Z,4.00
2019-05-23T08:50:29.629Z,3.45
2019-05-23T08:52:56.147Z,2.33
2019-05-23T08:55:23.879Z,2.60
2019-05-23T08:57:53.741Z,3.37
2019-05-23T09:00:22.101Z,3.17
2019-05-23T09:02:48.638Z,3.55
2019-05-23T09:05:17.269Z,2.37
2019-05-23T09:07:43.921Z,2.40
2019-05-23T09:10:10.531Z,2.90
2019-05-23T09:12:37.326Z,2.33
2019-05-23T09:15:09.362Z,2.65
2019-05-23T09:17:51.064Z,2.90
2019-05-23T09:20:02.331Z,5.08
2019-05-23T09:22:28.789Z,2.58
2019-05-23T09:24:55.342Z,3.30
2019-05-23T09:27:21.944Z,2.52
2019-05-23T09:29:48.205Z,4.42
2019-05-23T09:32:15.297Z,2.45
2019-05-23T09:34:41.655Z,2.98
2019-05-23T09:37:08.839Z,2.85
2019-05-23T09:39:37.035Z,2.60
2019-05-23T09:42:03.550Z,3.15
2019-05-23T09:44:30.220Z,2.90
2019-05-23T09:46:56.639Z,2.22
2019-05-23T09:49:23.272Z,2.80
2019-05-23T09:51:52.387Z,3.10
2019-05-23T09:54:18.125Z,2.10
2019-05-23T09:56:44.997Z,2.52
2019-05-23T09:59:11.354Z,2.07
2019-05-23T10:01:38.770Z,2.57
2019-05-23T10:04:05.275Z,2.83
2019-05-23T10:06:33.085Z,2.40
2019-05-23T10:08:59.738Z,2.53
2019-05-23T10:11:26.078Z,2.87
2019-05-23T10:13:52.220Z,2.93
2019-05-23T10:16:18.829Z,1.87
2019-05-23T10:18:45.252Z,2.03
2019-05-23T10:21:31.357Z,3.27
2019-05-23T10:23:57.895Z,2.87
2019-05-23T10:26:24.203Z,2.23
2019-05-23T10:28:50.469Z,2.00
2019-05-23T10:31:17.073Z,3.37
2019-05-23T10:33:43.763Z,3.43
2019-05-23T10:36:10.185Z,2.90
2019-05-23T10:38:36.783Z,2.37
2019-05-23T10:41:03.972Z,2.43
2019-05-23T10:43:30.547Z,2.27
2019-05-23T10:45:57.118Z,2.67
2019-05-23T10:48:25.397Z,2.30
2019-05-23T10:50:52.157Z,1.90
2019-05-23T10:53:18.536Z,1.97
2019-05-23T10:55:45.717Z,1.90
2019-05-23T10:58:13.125Z,1.90
2019-05-23T11:00:46.882Z,2.00
2019-05-23T11:03:14.477Z,2.27
2019-05-23T11:05:41.033Z,2.07
2019-05-23T11:08:08.969Z,3.73
2019-05-23T11:10:36.964Z,1.77
2019-05-23T11:13:04.080Z,2.57
2019-05-23T11:15:31.274Z,1.97
2019-05-23T11:17:59.179Z,2.40
2019-05-23T11:20:25.851Z,2.60
2019-05-23T11:22:52.304Z,3.73
2019-05-23T11:25:19.195Z,2.83
2019-05-23T11:27:46.049Z,2.33
2019-05-23T11:30:33.519Z,4.27
2019-05-23T11:33:00.069Z,4.10
2019-05-23T11:35:26.738Z,2.80
2019-05-23T11:37:53.192Z,3.07
2019-05-23T11:40:19.672Z,4.00
2019-05-23T11:42:45.960Z,3.03
2019-05-23T11:45:12.991Z,2.50
2019-05-23T11:47:39.339Z,2.50
2019-05-23T11:50:06.711Z,4.23
2019-05-23T11:52:33.224Z,3.00
2019-05-23T11:55:00.265Z,3.17
2019-05-23T11:57:26.802Z,2.43
2019-05-23T11:59:53.876Z,2.73
2019-05-23T12:02:22.404Z,2.40
2019-05-23T12:04:48.865Z,2.60
2019-05-23T12:07:22.931Z,2.73
2019-05-23T12:09:49.652Z,2.20
2019-05-23T12:12:16.226Z,4.80
2019-05-23T12:14:42.602Z,4.70
2019-05-23T12:17:12.064Z,2.80
2019-05-23T12:19:38.613Z,5.00
2019-05-23T12:22:05.307Z,3.33
2019-05-23T12:24:35.298Z,3.53
2019-05-23T12:26:59.818Z,2.73
2019-05-23T12:29:26.499Z,3.33
2019-05-23T12:31:53.709Z,2.30
2019-05-23T12:34:20.883Z,8.33
2019-05-23T12:36:47.424Z,3.03
2019-05-23T12:39:14.167Z,2.17
2019-05-23T12:41:41.431Z,3.80
2019-05-23T12:44:07.830Z,2.27
2019-05-23T12:46:34.357Z,2.37
2019-05-23T12:49:05.772Z,1.80
2019-05-23T12:51:42.115Z,1.70
2019-05-23T12:54:09.082Z,2.20
2019-05-23T12:56:35.702Z,2.50
2019-05-23T12:59:03.306Z,2.77
2019-05-23T13:01:31.130Z,2.10
2019-05-23T13:03:58.119Z,2.53
2019-05-23T13:06:24.843Z,2.17
2019-05-23T13:08:53.125Z,3.00
2019-05-23T13:11:20.071Z,2.43
2019-05-23T13:13:47.939Z,1.70
2019-05-23T13:16:15.136Z,2.33
2019-05-23T13:18:43.887Z,1.60
2019-05-23T13:21:11.058Z,2.23
2019-05-23T13:23:38.984Z,1.80
2019-05-23T13:26:07.205Z,1.93
2019-05-23T13:28:54.316Z,1.60
2019-05-23T13:31:22.553Z,1.90
2019-05-23T13:33:49.925Z,3.37
2019-05-23T13:38:57.529Z,1.93
2019-05-23T13:41:26.117Z,2.30
2019-05-23T13:43:54.165Z,3.10
2019-05-23T13:46:22.700Z,3.60
2019-05-23T13:48:50.041Z,2.17
2019-05-23T13:51:18.264Z,2.13
2019-05-23T13:53:45.283Z,2.17
2019-05-23T13:56:11.879Z,1.87
2019-05-23T13:58:38.482Z,1.77
2019-05-23T14:01:09.314Z,2.83
2019-05-23T14:03:34.101Z,2.27
2019-05-23T14:06:00.953Z,1.50
2019-05-23T14:08:27.439Z,1.70
2019-05-23T14:10:53.774Z,1.57
2019-05-23T14:13:20.223Z,2.73
2019-05-23T14:15:49.257Z,2.60
2019-05-23T14:18:17.497Z,1.80
2019-05-23T14:20:43.886Z,1.83
2019-05-23T14:23:16.068Z,2.03
2019-05-23T14:25:43.703Z,1.40
2019-05-23T14:28:10.351Z,1.67
2019-05-23T14:30:42.565Z,1.23
2019-05-23T14:33:11.641Z,2.20
2019-05-23T14:35:41.431Z,1.50
2019-05-23T14:38:29.040Z,1.70
2019-05-23T14:40:43.833Z,1.60
2019-05-23T14:43:18.916Z,1.43
2019-05-23T14:45:59.530Z,1.20
2019-05-23T14:48:32.302Z,1.50
2019-05-23T14:51:18.067Z,1.90
2019-05-23T14:53:50.508Z,2.63
2019-05-23T14:56:19.712Z,1.50
2019-05-23T14:58:46.838Z,1.80
2019-05-23T15:01:16.299Z,1.43
2019-05-23T15:03:44.553Z,1.40
2019-05-23T15:06:12.586Z,2.57
2019-05-23T15:08:51.307Z,1.53
2019-05-23T15:11:10.441Z,1.85
2019-05-23T15:13:38.584Z,2.33
2019-05-23T15:16:05.560Z,1.43
2019-05-23T15:18:31.845Z,2.60
2019-05-23T15:20:58.629Z,2.43
2019-05-23T15:23:24.908Z,3.23
2019-05-23T15:25:51.245Z,1.70
2019-05-23T15:28:17.956Z,1.80
2019-05-23T15:30:47.937Z,1.57
2019-05-23T15:33:15.329Z,2.65
2019-05-23T15:35:43.577Z,1.53
2019-05-23T15:38:12.001Z,2.37
2019-05-23T15:40:40.374Z,2.67
2019-05-23T15:43:09.973Z,1.57
2019-05-23T15:45:38.716Z,1.77
2019-05-23T15:48:06.117Z,2.20
2019-05-23T15:50:36.039Z,1.77
2019-05-23T15:53:04.648Z,2.03
2019-05-23T15:55:47.797Z,1.40
2019-05-23T15:58:15.917Z,1.40
2019-05-23T16:00:44.190Z,1.97
2019-05-23T16:03:13.962Z,1.67
2019-05-23T16:05:40.677Z,1.83
2019-05-23T16:08:07.606Z,1.52
2019-05-23T16:10:34.861Z,1.77
2019-05-23T16:13:01.827Z,2.00
2019-05-23T16:15:28.194Z,1.50
2019-05-23T16:18:00.254Z,1.50
2019-05-23T16:20:27.113Z,3.33
2019-05-23T16:22:54.409Z,2.77
2019-05-23T16:25:20.968Z,1.60
2019-05-23T16:27:49.254Z,2.17
2019-05-23T16:30:15.788Z,1.30
2019-05-23T16:32:42.140Z,1.87
2019-05-23T16:35:08.727Z,2.50
2019-05-23T16:37:35.032Z,3.10
2019-05-23T16:40:01.669Z,2.00
2019-05-23T16:42:28.249Z,1.70
2019-05-23T16:44:54.703Z,1.50
2019-05-23T16:47:22.499Z,1.80
2019-05-23T16:49:48.960Z,1.70
2019-05-23T16:52:15.223Z,1.47
2019-05-23T16:54:43.711Z,1.40
2019-05-23T16:57:12.304Z,1.50
2019-05-23T16:59:55.730Z,1.40
2019-05-23T17:02:27.250Z,1.50
2019-05-23T17:05:09.814Z,1.40
2019-05-23T17:07:49.149Z,1.70
2019-05-23T17:10:23.720Z,2.10
2019-05-23T17:12:55.134Z,1.73
2019-05-23T17:15:23.548Z,1.60
2019-05-23T17:18:02.483Z,2.30
2019-05-23T17:20:25.453Z,1.20
2019-05-23T17:23:02.513Z,1.20
2019-05-23T17:25:49.148Z,2.23
2019-05-23T17:28:23.281Z,1.20
2019-05-23T17:30:51.804Z,1.50
2019-05-23T17:33:18.382Z,1.20
2019-05-23T17:35:44.784Z,1.30
2019-05-23T17:38:11.310Z,1.10
2019-05-23T17:40:37.861Z,1.47
2019-05-23T17:43:04.729Z,6.12
2019-05-23T17:45:31.808Z,6.83
2019-05-23T17:48:00.096Z,3.27
2019-05-23T17:50:28.284Z,2.73
2019-05-23T17:52:54.810Z,1.50
2019-05-23T17:55:21.362Z,1.50
2019-05-23T17:57:47.749Z,1.63
2019-05-23T18:00:16.009Z,0.90
2019-05-23T18:02:42.351Z,1.20
2019-05-23T18:05:09.795Z,1.97
2019-05-23T18:07:37.636Z,1.30
2019-05-23T18:10:07.581Z,1.00
2019-05-23T18:12:33.825Z,2.43
2019-05-23T18:15:00.960Z,1.03
2019-05-23T18:17:27.581Z,1.73
2019-05-23T18:19:54.399Z,2.70
2019-05-23T18:22:20.939Z,1.57
2019-05-23T18:24:47.475Z,1.30
2019-05-23T18:27:14.846Z,1.30
2019-05-23T18:29:42.658Z,1.17
2019-05-23T18:32:10.688Z,1.47
2019-05-23T18:34:38.158Z,3.40
2019-05-23T18:37:06.982Z,1.63
2019-05-23T18:39:34.220Z,1.30
2019-05-23T18:42:01.017Z,1.93
2019-05-23T18:44:27.467Z,1.80
2019-05-23T18:46:56.276Z,1.07
2019-05-23T18:49:23.030Z,1.40
2019-05-23T18:51:50.239Z,1.23
2019-05-23T18:54:17.266Z,1.67
2019-05-23T18:56:59.475Z,1.30
2019-05-23T18:59:25.923Z,1.00
2019-05-23T19:01:53.058Z,3.50
2019-05-23T19:04:19.384Z,5.80
2019-05-23T19:06:46.275Z,3.03
2019-05-23T19:09:14.149Z,4.07
2019-05-23T19:11:41.309Z,2.20
2019-05-23T19:14:08.052Z,3.17
2019-05-23T19:16:34.798Z,2.43
2019-05-23T19:19:01.792Z,3.50
2019-05-23T19:21:28.772Z,2.57
2019-05-23T19:23:55.087Z,2.73
2019-05-23T19:26:22.293Z,4.57
2019-05-23T19:28:50.242Z,5.87
2019-05-23T19:31:17.159Z,18.30
2019-05-23T19:33:44.536Z,56.50
2019-05-23T19:36:11.448Z,49.40
2019-05-23T19:38:37.776Z,27.93
2019-05-23T19:41:04.540Z,17.33
2019-05-23T19:43:31.538Z,12.13
2019-05-23T19:45:58.183Z,5.77
2019-05-23T19:48:24.875Z,4.10
2019-05-23T19:50:52.332Z,3.00
2019-05-23T19:53:19.843Z,2.50
2019-05-23T19:55:46.508Z,2.57
2019-05-23T19:58:13.302Z,2.13
2019-05-23T20:00:41.565Z,1.50
2019-05-23T20:03:08.004Z,3.13
2019-05-23T20:05:39.222Z,2.93
2019-05-23T20:08:05.904Z,1.47
2019-05-23T20:10:33.849Z,2.17
2019-05-23T20:13:01.318Z,1.60
2019-05-23T20:15:29.157Z,1.67
2019-05-23T20:17:56.168Z,2.03
2019-05-23T20:20:22.838Z,2.10
2019-05-23T20:22:49.131Z,2.40
2019-05-23T20:25:15.719Z,2.00
2019-05-23T20:27:42.491Z,3.63
2019-05-23T20:30:11.163Z,1.60
2019-05-23T20:32:37.511Z,1.97
2019-05-23T20:35:04.467Z,2.50
2019-05-23T20:37:34.837Z,2.43
2019-05-23T20:40:01.134Z,1.53
2019-05-23T20:42:27.901Z,3.30
2019-05-23T20:44:54.442Z,1.50
2019-05-23T20:47:20.665Z,2.03
2019-05-23T20:50:07.089Z,1.97
2019-05-23T20:52:33.629Z,1.93
2019-05-23T20:55:00.584Z,1.67
2019-05-23T20:57:26.835Z,2.00
2019-05-23T20:59:53.119Z,1.67
2019-05-23T21:02:20.290Z,2.37
2019-05-23T21:04:46.536Z,1.97
2019-05-23T21:07:13.295Z,1.53
2019-05-23T21:09:39.839Z,2.17
2019-05-23T21:12:06.946Z,4.87
2019-05-23T21:14:33.743Z,5.27
2019-05-23T21:17:00.102Z,3.80
2019-05-23T21:19:26.512Z,2.87
2019-05-23T21:21:52.957Z,1.70
2019-05-23T21:24:19.356Z,2.40
2019-05-23T21:26:45.881Z,2.23
2019-05-23T21:29:12.301Z,1.50
2019-05-23T21:31:38.588Z,2.10
2019-05-23T21:34:05.657Z,1.90
2019-05-23T21:36:33.122Z,1.73
2019-05-23T21:38:59.565Z,2.23
2019-05-23T21:41:26.147Z,2.10
2019-05-23T21:43:54.273Z,2.63
2019-05-23T21:46:21.138Z,2.57
2019-05-23T21:48:47.439Z,1.83
2019-05-23T21:51:13.731Z,2.00
2019-05-23T21:53:40.158Z,1.80
2019-05-23T21:56:06.453Z,2.67
2019-05-23T21:58:32.804Z,1.80
2019-05-23T22:01:06.198Z,2.20
2019-05-23T22:03:53.378Z,2.40
2019-05-23T22:06:35.244Z,3.57
2019-05-23T22:09:03.876Z,2.53
2019-05-23T22:11:30.225Z,2.67
2019-05-23T22:13:56.563Z,1.50
2019-05-23T22:16:23.284Z,1.70
2019-05-23T22:18:49.695Z,4.10
2019-05-23T22:21:16.573Z,2.20
2019-05-23T22:23:43.031Z,2.00
2019-05-23T22:26:09.263Z,2.40
2019-05-23T22:28:36.118Z,1.63
2019-05-23T22:31:02.377Z,1.90
2019-05-23T22:33:31.034Z,1.90
2019-05-23T22:35:58.603Z,3.30
2019-05-23T22:38:25.161Z,2.10
2019-05-23T22:40:51.427Z,2.10
2019-05-23T22:43:21.124Z,2.07
2019-05-23T22:45:46.424Z,2.20
2019-05-23T22:48:12.776Z,4.47
2019-05-23T22:50:39.185Z,2.43
2019-05-23T22:53:05.428Z,2.20
2019-05-23T22:55:33.041Z,2.10
2019-05-23T22:57:59.809Z,4.17
2019-05-23T23:00:28.052Z,2.00
2019-05-23T23:02:54.615Z,1.90
2019-05-23T23:05:20.887Z,2.30
2019-05-23T23:07:47.401Z,2.30
2019-05-23T23:10:13.857Z,3.00
2019-05-23T23:12:39.998Z,2.30
2019-05-23T23:15:07.165Z,3.27
2019-05-23T23:17:33.338Z,2.87
2019-05-23T23:19:59.512Z,2.23
2019-05-23T23:22:25.637Z,2.20
2019-05-23T23:24:52.023Z,2.37
2019-05-23T23:27:18.279Z,3.30
2019-05-23T23:29:44.577Z,2.00
2019-05-23T23:32:12.332Z,2.13
2019-05-23T23:34:38.977Z,2.97
2019-05-23T23:37:05.378Z,2.40
2019-05-23T23:39:31.555Z,2.33
2019-05-23T23:41:57.872Z,2.07
2019-05-23T23:44:26.037Z,1.97
2019-05-23T23:47:11.157Z,2.37
2019-05-23T23:49:55.831Z,1.87
2019-05-23T23:52:41.167Z,2.23
2019-05-23T23:55:27.869Z,3.00
2019-05-23T23:58:01.206Z,2.30
